Time;durP1;ratioP1;P1;durP2;ratioP2;P2;SDS_P1;SDS_P2;PMS_P1;PMS_P2;Temp;Humidity;BMP_temperature;BMP_pressure;BME280_temperature;BME280_humidity;BME280_pressure;Samples;Min_cycle;Max_cycle;Signal;HPM_P1;HPM_P2
2021/01/13 00:00:21;;;;;;;10.57;7.90;;;1.70;99.90;;;;;;5053774;28;20235;-79
2021/01/13 00:02:48;;;;;;;10.32;7.53;;;1.80;99.90;;;;;;5053742;28;20200;-79
2021/01/13 00:05:14;;;;;;;12.93;8.77;;;1.90;99.90;;;;;;5053038;28;20208;-79
2021/01/13 00:07:42;;;;;;;9.93;7.82;;;2.00;99.90;;;;;;5050666;28;20232;-79
2021/01/13 00:10:10;;;;;;;9.55;7.60;;;1.90;99.90;;;;;;5052957;28;20202;-79
2021/01/13 00:12:37;;;;;;;8.63;7.55;;;1.90;99.90;;;;;;5051211;28;20266;-79
2021/01/13 00:15:04;;;;;;;12.57;8.63;;;1.90;99.90;;;;;;5052490;28;20230;-79
2021/01/13 00:17:31;;;;;;;10.00;8.02;;;1.90;99.90;;;;;;5051694;28;20199;-79
2021/01/13 00:19:57;;;;;;;9.43;7.35;;;2.00;99.90;;;;;;5052393;28;20239;-79
2021/01/13 00:22:24;;;;;;;8.80;7.47;;;2.10;99.90;;;;;;5052102;28;20232;-79
2021/01/13 00:24:52;;;;;;;8.48;6.88;;;2.20;99.90;;;;;;5052437;28;20553;-79
2021/01/13 00:27:21;;;;;;;10.57;7.13;;;2.30;99.90;;;;;;5051688;28;20273;-79
2021/01/13 00:29:48;;;;;;;9.77;7.13;;;2.30;99.90;;;;;;5052227;28;20676;-79
2021/01/13 00:32:14;;;;;;;10.55;6.50;;;2.30;99.90;;;;;;5052746;28;20560;-79
2021/01/13 00:34:41;;;;;;;8.88;6.68;;;2.40;99.90;;;;;;5051832;28;20253;-79
2021/01/13 00:37:08;;;;;;;10.75;6.53;;;2.40;99.90;;;;;;5051652;28;20219;-79
2021/01/13 00:39:34;;;;;;;6.55;5.47;;;2.40;99.90;;;;;;5052228;28;20203;-79
2021/01/13 00:42:02;;;;;;;5.68;5.18;;;2.50;99.90;;;;;;5056857;28;20218;-79
2021/01/13 00:44:28;;;;;;;9.25;6.28;;;2.40;99.90;;;;;;5051905;28;20207;-79
2021/01/13 00:46:55;;;;;;;8.75;5.93;;;2.40;99.90;;;;;;5050774;28;20753;-79
2021/01/13 00:49:21;;;;;;;7.35;6.30;;;2.50;99.90;;;;;;5051326;28;20196;-79
2021/01/13 00:51:48;;;;;;;6.82;5.60;;;2.50;99.90;;;;;;5052931;28;20196;-79
2021/01/13 00:54:14;;;;;;;8.55;6.97;;;2.50;99.90;;;;;;5051916;28;20665;-79
2021/01/13 00:56:43;;;;;;;6.78;5.30;;;2.60;99.90;;;;;;5052508;28;20250;-79
2021/01/13 00:59:11;;;;;;;8.10;6.30;;;2.60;99.90;;;;;;5051455;28;20588;-79
2021/01/13 01:01:38;;;;;;;9.20;6.20;;;2.40;99.90;;;;;;5052085;28;20256;-79
2021/01/13 01:04:06;;;;;;;8.80;5.80;;;2.50;99.90;;;;;;5051913;28;20669;-80
2021/01/13 01:06:32;;;;;;;6.63;5.55;;;2.60;99.90;;;;;;5052270;28;20254;-79
2021/01/13 01:08:59;;;;;;;5.32;4.82;;;2.60;99.90;;;;;;5050638;28;20674;-80
2021/01/13 01:11:28;;;;;;;6.95;5.40;;;2.50;99.90;;;;;;5050697;28;20235;-79
2021/01/13 01:13:55;;;;;;;7.85;5.50;;;2.50;99.90;;;;;;5051533;28;20774;-79
2021/01/13 01:16:28;;;;;;;7.20;5.78;;;2.40;99.90;;;;;;5051257;28;20231;-80
2021/01/13 01:18:54;;;;;;;11.27;6.07;;;2.50;99.90;;;;;;5052231;28;20200;-79
2021/01/13 01:21:20;;;;;;;7.45;5.32;;;2.50;99.90;;;;;;5052695;28;20204;-79
2021/01/13 01:23:47;;;;;;;10.80;6.05;;;2.40;99.90;;;;;;5052768;28;20200;-79
2021/01/13 01:26:13;;;;;;;7.65;4.68;;;2.50;99.90;;;;;;5052103;28;20191;-80
2021/01/13 01:28:39;;;;;;;8.07;5.30;;;2.50;99.90;;;;;;5051666;28;20188;-80
2021/01/13 01:31:06;;;;;;;6.07;5.47;;;2.60;99.90;;;;;;5051643;28;20203;-79
2021/01/13 01:33:33;;;;;;;8.30;5.85;;;2.50;99.90;;;;;;5051649;28;20681;-79
2021/01/13 01:35:59;;;;;;;5.78;4.90;;;2.50;99.90;;;;;;5051516;28;20238;-80
2021/01/13 01:38:26;;;;;;;5.25;4.35;;;2.30;99.90;;;;;;5051787;28;20623;-79
2021/01/13 01:40:52;;;;;;;6.28;5.20;;;2.20;99.90;;;;;;5051428;28;20196;-80
2021/01/13 01:43:19;;;;;;;6.50;4.18;;;2.10;99.90;;;;;;5052294;28;20207;-79
2021/01/13 01:45:45;;;;;;;5.45;4.03;;;2.20;99.90;;;;;;5051247;28;20200;-79
2021/01/13 01:48:21;;;;;;;7.47;5.45;;;2.40;99.90;;;;;;5051291;28;20275;-79
2021/01/13 01:50:50;;;;;;;7.28;5.32;;;2.50;99.90;;;;;;5050837;28;20282;-80
2021/01/13 01:53:22;;;;;;;8.57;5.05;;;2.50;99.90;;;;;;5051276;28;20220;-79
2021/01/13 01:56:04;;;;;;;5.57;4.22;;;2.40;99.90;;;;;;5051610;28;20203;-80
2021/01/13 01:58:32;;;;;;;6.53;4.80;;;2.60;99.90;;;;;;5050503;28;20223;-79
2021/01/13 02:00:59;;;;;;;5.45;4.90;;;2.60;99.90;;;;;;5050663;28;20681;-80
2021/01/13 02:03:30;;;;;;;4.60;4.07;;;2.30;99.90;;;;;;5051413;28;20207;-79
2021/01/13 02:06:04;;;;;;;7.72;4.00;;;2.30;99.90;;;;;;5051094;28;20602;-80
2021/01/13 02:08:38;;;;;;;4.30;3.90;;;2.40;99.90;;;;;;5049869;28;20203;-80
2021/01/13 02:11:14;;;;;;;5.75;3.80;;;2.50;99.90;;;;;;5051278;28;20287;-79
2021/01/13 02:13:43;;;;;;;6.80;4.13;;;2.40;99.90;;;;;;5049499;28;20570;-79
2021/01/13 02:16:11;;;;;;;5.70;4.15;;;2.40;99.90;;;;;;5051415;28;20690;-79
2021/01/13 02:18:41;;;;;;;4.85;3.85;;;2.40;99.90;;;;;;5049937;28;20208;-80
2021/01/13 02:21:14;;;;;;;5.47;3.75;;;2.40;99.90;;;;;;5050964;28;20228;-80
2021/01/13 02:23:48;;;;;;;5.20;3.65;;;2.50;99.90;;;;;;5036443;28;20290;-79
2021/01/13 02:26:52;;;;;;;4.60;3.55;;;2.30;99.90;;;;;;5051145;28;20199;-80
2021/01/13 02:29:33;;;;;;;4.97;3.10;;;2.40;99.90;;;;;;5032578;28;20294;-80
2021/01/13 02:32:16;;;;;;;4.03;3.60;;;2.40;99.90;;;;;;5053775;28;20530;-80
2021/01/13 02:35:01;;;;;;;3.88;3.10;;;2.40;99.90;;;;;;5054992;28;20238;-79
2021/01/13 02:37:44;;;;;;;4.07;3.25;;;2.40;99.90;;;;;;5054540;28;20265;-79
2021/01/13 02:40:19;;;;;;;4.50;3.70;;;2.50;99.90;;;;;;5049708;28;20215;-80
2021/01/13 02:43:14;;;;;;;4.88;3.00;;;2.40;99.90;;;;;;5052479;28;20257;-79
2021/01/13 02:45:47;;;;;;;3.00;2.70;;;2.40;99.90;;;;;;5008457;28;20212;-79
2021/01/13 02:48:20;;;;;;;4.82;3.15;;;2.30;99.90;;;;;;5053365;28;20203;-80
2021/01/13 02:50:55;;;;;;;3.53;3.08;;;2.40;99.90;;;;;;5053815;28;20207;-79
2021/01/13 02:53:53;;;;;;;3.13;2.80;;;2.50;99.90;;;;;;5053998;28;20302;-79
2021/01/13 02:56:44;;;;;;;6.57;3.78;;;2.40;99.90;;;;;;5033356;28;20304;-80
2021/01/13 02:59:14;;;;;;;8.48;3.60;;;2.50;99.90;;;;;;5043373;28;20190;-79
2021/01/13 03:01:45;;;;;;;4.00;3.63;;;2.60;99.90;;;;;;5053455;28;20289;-79
2021/01/13 03:04:13;;;;;;;3.45;3.15;;;2.40;99.90;;;;;;5053192;28;20220;-80
2021/01/13 03:06:45;;;;;;;3.38;3.08;;;2.40;99.90;;;;;;5054181;28;20204;-80
2021/01/13 03:09:12;;;;;;;5.93;3.28;;;2.50;99.90;;;;;;5052842;28;20200;-79
2021/01/13 03:11:40;;;;;;;5.35;3.05;;;2.50;99.90;;;;;;5054240;28;20223;-80
2021/01/13 03:14:21;;;;;;;5.45;3.05;;;2.50;99.90;;;;;;5054086;28;20577;-79
2021/01/13 03:17:08;;;;;;;4.22;3.65;;;2.50;99.90;;;;;;5054252;28;20203;-79
2021/01/13 03:20:00;;;;;;;4.68;3.22;;;2.40;99.90;;;;;;5054060;28;20661;-79
2021/01/13 03:22:31;;;;;;;3.35;3.05;;;2.40;99.90;;;;;;5045752;28;20203;-79
2021/01/13 03:25:03;;;;;;;9.77;4.20;;;2.40;99.90;;;;;;5054437;28;20192;-79
2021/01/13 03:27:33;;;;;;;3.75;3.28;;;2.30;99.90;;;;;;5053236;28;20558;-79
2021/01/13 03:30:01;;;;;;;4.35;3.20;;;2.20;99.90;;;;;;5053842;28;20370;-79
2021/01/13 03:32:37;;;;;;;6.70;3.97;;;2.30;99.90;;;;;;5054009;28;20227;-79
2021/01/13 03:35:08;;;;;;;8.60;3.63;;;2.30;99.90;;;;;;5053611;28;20196;-79
2021/01/13 03:37:56;;;;;;;7.00;3.78;;;2.30;99.90;;;;;;5053058;28;20222;-79
2021/01/13 03:40:25;;;;;;;5.13;4.68;;;2.40;99.90;;;;;;5053208;28;20208;-79
2021/01/13 03:42:53;;;;;;;7.15;3.13;;;2.30;99.90;;;;;;5053546;28;20653;-79
2021/01/13 03:45:36;;;;;;;5.10;3.17;;;2.30;99.90;;;;;;5053268;28;20192;-79
2021/01/13 03:48:09;;;;;;;5.85;3.10;;;2.30;99.90;;;;;;5052602;28;20195;-79
2021/01/13 03:50:41;;;;;;;4.45;3.20;;;2.30;99.90;;;;;;5053079;28;20208;-79
2021/01/13 03:53:09;;;;;;;4.43;3.45;;;2.30;99.90;;;;;;5053487;28;20223;-79
2021/01/13 03:55:36;;;;;;;5.30;3.80;;;2.30;99.90;;;;;;5053780;28;20702;-79
2021/01/13 03:58:30;;;;;;;4.18;3.72;;;2.30;99.90;;;;;;5052891;28;20188;-79
2021/01/13 04:01:29;;;;;;;4.55;4.03;;;2.40;99.90;;;;;;5052583;28;20580;-79
2021/01/13 04:04:06;;;;;;;4.22;3.80;;;2.40;99.90;;;;;;5053208;28;20211;-79
2021/01/13 04:06:41;;;;;;;6.30;3.50;;;2.40;99.90;;;;;;5053082;28;20215;-79
2021/01/13 04:09:09;;;;;;;5.80;4.20;;;2.40;99.90;;;;;;5052545;28;20192;-79
2021/01/13 04:11:36;;;;;;;3.90;3.50;;;2.40;99.90;;;;;;5033308;28;20307;-79
2021/01/13 04:14:04;;;;;;;4.78;3.80;;;2.50;99.90;;;;;;5044798;28;20262;-79
2021/01/13 04:16:37;;;;;;;4.57;4.10;;;2.30;99.90;;;;;;5054167;28;20199;-79
2021/01/13 04:19:06;;;;;;;6.50;4.38;;;2.30;99.90;;;;;;5051205;28;20232;-79
2021/01/13 04:21:34;;;;;;;4.65;3.42;;;2.30;99.90;;;;;;5052733;28;20208;-79
2021/01/13 04:24:01;;;;;;;4.47;3.65;;;2.30;99.90;;;;;;5052432;28;20226;-79
2021/01/13 04:26:28;;;;;;;9.30;3.97;;;2.30;99.90;;;;;;5054149;28;20295;-79
2021/01/13 04:28:55;;;;;;;10.43;4.35;;;2.20;99.90;;;;;;5053403;28;20870;-79
2021/01/13 04:31:22;;;;;;;3.67;3.38;;;2.10;99.90;;;;;;5054712;28;20266;-79
2021/01/13 04:33:49;;;;;;;6.38;4.57;;;2.10;99.90;;;;;;5053750;28;20303;-79
2021/01/13 04:36:18;;;;;;;8.15;3.97;;;2.00;99.90;;;;;;5053316;28;20204;-79
2021/01/13 04:38:45;;;;;;;5.25;4.30;;;1.90;99.90;;;;;;5052629;28;20247;-79
2021/01/13 04:41:13;;;;;;;6.43;3.70;;;1.90;99.90;;;;;;5053008;28;20227;-79
2021/01/13 04:43:51;;;;;;;5.50;3.38;;;1.90;99.90;;;;;;5053537;28;20277;-79
2021/01/13 04:46:27;;;;;;;4.55;4.00;;;1.90;99.90;;;;;;5039348;28;20200;-79
2021/01/13 04:49:06;;;;;;;4.75;3.83;;;1.90;99.90;;;;;;5033308;28;20219;-79
2021/01/13 04:51:35;;;;;;;5.57;3.58;;;2.00;99.90;;;;;;5053683;28;20188;-79
2021/01/13 04:54:06;;;;;;;4.93;3.88;;;1.80;99.90;;;;;;5053273;28;20245;-79
2021/01/13 04:56:39;;;;;;;5.90;3.97;;;1.90;99.90;;;;;;5053553;28;20250;-79
2021/01/13 05:00:03;;;;;;;4.53;4.05;;;1.90;99.90;;;;;;5051845;28;20580;-79
2021/01/13 05:03:05;;;;;;;6.85;4.50;;;2.00;99.90;;;;;;4984841;28;20690;-79
2021/01/13 05:05:44;;;;;;;6.80;4.40;;;2.10;99.90;;;;;;4986851;28;20223;-79
2021/01/13 05:08:28;;;;;;;6.60;3.90;;;2.10;99.90;;;;;;5032606;28;20254;-79
2021/01/13 05:11:09;;;;;;;4.10;3.75;;;2.00;99.90;;;;;;5053043;28;20203;-79
2021/01/13 05:13:36;;;;;;;6.57;4.00;;;2.10;99.90;;;;;;5052238;28;20274;-79
2021/01/13 05:16:10;;;;;;;7.38;4.22;;;2.20;99.90;;;;;;5052116;28;20735;-79
2021/01/13 05:18:57;;;;;;;7.97;4.57;;;2.20;99.90;;;;;;5051604;28;20206;-79
2021/01/13 05:21:25;;;;;;;6.53;4.78;;;2.30;99.90;;;;;;5032320;28;20545;-79
2021/01/13 05:23:54;;;;;;;8.90;5.03;;;2.20;99.90;;;;;;5051786;28;20192;-79
2021/01/13 05:26:22;;;;;;;5.65;4.50;;;2.10;99.90;;;;;;5051984;28;20595;-78
2021/01/13 05:29:23;;;;;;;6.03;3.75;;;2.10;99.90;;;;;;5051530;28;20192;-78
2021/01/13 05:31:51;;;;;;;8.60;4.93;;;2.20;99.90;;;;;;5032312;28;20207;-79
2021/01/13 05:34:19;;;;;;;5.05;4.00;;;2.10;99.90;;;;;;5050919;28;20255;-79
2021/01/13 05:37:17;;;;;;;4.55;3.97;;;2.00;99.90;;;;;;5051072;28;20254;-79
2021/01/13 05:39:47;;;;;;;7.15;4.00;;;2.00;99.90;;;;;;5046666;28;20215;-79
2021/01/13 05:42:17;;;;;;;6.68;4.50;;;2.00;99.90;;;;;;5052217;28;20253;-79
2021/01/13 05:44:45;;;;;;;5.53;4.95;;;2.10;99.90;;;;;;5051742;28;20287;-78
2021/01/13 05:47:49;;;;;;;8.02;4.95;;;2.00;99.90;;;;;;5050634;28;20254;-79
2021/01/13 05:50:18;;;;;;;9.65;4.97;;;2.00;99.90;;;;;;5051954;28;20279;-78
2021/01/13 05:52:47;;;;;;;5.65;4.40;;;2.10;99.90;;;;;;5052185;28;20219;-78
2021/01/13 05:55:16;;;;;;;5.65;4.00;;;2.10;99.90;;;;;;5061353;28;20767;-79
2021/01/13 05:57:56;;;;;;;6.35;4.63;;;2.20;99.90;;;;;;5050569;28;20200;-79
2021/01/13 06:00:24;;;;;;;9.05;4.25;;;2.00;99.90;;;;;;5051478;28;20199;-79
2021/01/13 06:02:56;;;;;;;4.90;4.40;;;2.00;99.90;;;;;;5051742;28;20204;-79
2021/01/13 06:05:24;;;;;;;5.63;4.95;;;1.80;99.90;;;;;;5053285;28;20227;-79
2021/01/13 06:07:52;;;;;;;4.10;3.70;;;1.80;99.90;;;;;;5054758;28;20262;-79
2021/01/13 06:10:21;;;;;;;9.73;5.25;;;1.70;99.90;;;;;;5054968;28;20192;-79
2021/01/13 06:12:49;;;;;;;5.00;4.03;;;1.60;99.90;;;;;;5054371;28;20230;-79
2021/01/13 06:15:24;;;;;;;8.90;5.53;;;1.70;99.90;;;;;;5055453;28;20828;-79
2021/01/13 06:17:52;;;;;;;8.20;5.50;;;1.70;99.90;;;;;;5055057;28;20660;-79
2021/01/13 06:20:20;;;;;;;6.07;4.47;;;1.60;99.90;;;;;;5036374;28;20247;-79
2021/01/13 06:22:48;;;;;;;4.75;4.25;;;1.50;99.90;;;;;;5053076;28;20196;-79
2021/01/13 06:25:22;;;;;;;10.57;5.05;;;1.50;99.90;;;;;;5055078;28;20203;-79
2021/01/13 06:28:12;;;;;;;5.13;4.63;;;1.50;99.90;;;;;;5054450;28;20275;-79
2021/01/13 06:30:40;;;;;;;6.82;4.68;;;1.50;99.90;;;;;;5055221;28;20235;-79
2021/01/13 06:33:08;;;;;;;9.15;5.70;;;1.30;99.90;;;;;;5055053;28;20571;-79
2021/01/13 06:36:15;;;;;;;9.38;6.30;;;1.30;99.90;;;;;;5052966;28;20756;-81
2021/01/13 06:38:50;;;;;;;14.57;6.55;;;1.50;99.90;;;;;;5043941;28;20227;-81
2021/01/13 06:41:17;;;;;;;8.13;5.43;;;1.50;99.90;;;;;;5052272;28;20558;-81
2021/01/13 06:43:57;;;;;;;7.50;5.80;;;1.50;99.90;;;;;;5052607;28;20215;-82
2021/01/13 06:46:23;;;;;;;8.52;5.70;;;1.30;99.90;;;;;;5050819;28;20226;-80
2021/01/13 06:48:50;;;;;;;4.97;4.32;;;1.20;99.90;;;;;;5052268;28;20320;-80
2021/01/13 06:51:17;;;;;;;9.82;5.80;;;1.30;99.90;;;;;;5053613;28;20196;-81
2021/01/13 06:53:46;;;;;;;7.53;5.60;;;1.20;99.90;;;;;;5052763;28;20231;-81
2021/01/13 06:56:14;;;;;;;12.15;5.65;;;1.20;99.90;;;;;;5054730;28;20211;-81
2021/01/13 06:58:55;;;;;;;9.20;5.30;;;1.00;99.90;;;;;;5063027;28;20261;-81
2021/01/13 07:01:22;;;;;;;11.13;5.53;;;1.00;99.90;;;;;;5063507;28;20254;-81
2021/01/13 07:03:58;;;;;;;9.27;6.45;;;1.00;99.90;;;;;;5062074;28;20199;-80
2021/01/13 07:06:24;;;;;;;11.52;5.53;;;1.00;99.90;;;;;;5069908;28;20199;-81
2021/01/13 07:08:52;;;;;;;10.48;5.43;;;0.90;99.90;;;;;;5057435;28;20221;-80
2021/01/13 07:11:19;;;;;;;6.13;5.53;;;1.00;99.90;;;;;;5070527;28;20191;-81
2021/01/13 07:13:51;;;;;;;10.27;6.18;;;1.10;99.90;;;;;;5060228;28;20701;-80
2021/01/13 07:16:25;;;;;;;9.65;5.80;;;1.00;99.90;;;;;;5068744;28;20234;-81
2021/01/13 07:18:53;;;;;;;6.70;5.75;;;1.00;99.90;;;;;;5056443;28;20544;-80
2021/01/13 07:21:19;;;;;;;7.97;5.88;;;0.90;99.90;;;;;;5064707;28;20608;-80
2021/01/13 07:23:47;;;;;;;10.52;5.78;;;1.00;99.90;;;;;;5052583;28;20246;-81
2021/01/13 07:26:14;;;;;;;6.63;5.57;;;0.90;99.90;;;;;;5066694;28;20195;-81
2021/01/13 07:28:40;;;;;;;7.45;6.15;;;0.90;99.90;;;;;;5062045;28;20206;-81
2021/01/13 07:31:08;;;;;;;7.00;5.55;;;0.90;99.90;;;;;;5060837;28;20203;-81
2021/01/13 07:33:36;;;;;;;11.45;5.85;;;1.00;99.90;;;;;;5049495;28;20646;-80
2021/01/13 07:36:04;;;;;;;13.70;5.80;;;1.00;99.90;;;;;;5066150;28;20202;-81
2021/01/13 07:38:32;;;;;;;8.55;6.47;;;1.00;99.90;;;;;;5057027;28;20196;-81
2021/01/13 07:41:01;;;;;;;6.88;5.35;;;1.00;99.90;;;;;;5051080;28;20223;-81
2021/01/13 07:44:10;;;;;;;9.85;6.50;;;1.00;99.90;;;;;;5051590;28;20200;-81
2021/01/13 07:46:37;;;;;;;6.90;6.07;;;1.10;99.90;;;;;;5041234;28;20250;-81
2021/01/13 07:49:16;;;;;;;11.45;7.05;;;1.10;99.90;;;;;;5051578;28;20199;-81
2021/01/13 07:51:48;;;;;;;10.68;6.95;;;1.10;99.90;;;;;;5052087;28;20675;-81
2021/01/13 07:54:27;;;;;;;8.70;6.15;;;1.30;99.90;;;;;;5051371;28;20216;-81
2021/01/13 07:56:57;;;;;;;9.80;7.25;;;1.20;99.90;;;;;;5051280;28;20196;-81
2021/01/13 07:59:34;;;;;;;8.05;6.22;;;1.20;99.90;;;;;;5052149;28;20193;-81
2021/01/13 08:02:36;;;;;;;10.40;7.38;;;1.30;99.90;;;;;;5032324;28;20208;-82
2021/01/13 08:06:01;;;;;;;7.82;6.20;;;1.30;99.90;;;;;;5034029;28;20208;-81
2021/01/13 08:08:59;;;;;;;9.13;7.03;;;1.30;99.90;;;;;;5040294;28;20207;-81
2021/01/13 08:11:56;;;;;;;10.13;6.60;;;1.40;99.90;;;;;;5046625;28;20646;-81
2021/01/13 08:14:48;;;;;;;10.18;6.82;;;1.50;99.90;;;;;;5051437;28;20220;-81
2021/01/13 08:18:02;;;;;;;9.85;7.50;;;1.60;99.90;;;;;;5050162;28;20284;-81
2021/01/13 08:21:15;;;;;;;11.85;9.05;;;1.70;99.90;;;;;;5051563;28;20238;-82
2021/01/13 08:24:25;;;;;;;17.40;9.73;;;1.80;99.90;;;;;;5031441;28;20211;-82
2021/01/13 08:26:52;;;;;;;22.42;9.65;;;1.90;99.90;;;;;;5051709;28;20196;-81
2021/01/13 08:29:21;;;;;;;11.15;10.02;;;2.10;99.90;;;;;;5050350;28;20196;-82
2021/01/13 08:32:04;;;;;;;15.48;7.75;;;2.20;99.90;;;;;;5051329;28;20207;-82
2021/01/13 08:34:38;;;;;;;12.38;8.35;;;2.20;99.90;;;;;;5051467;28;20385;-83
2021/01/13 08:37:05;;;;;;;12.85;9.32;;;2.20;99.90;;;;;;5051575;28;20208;-82
2021/01/13 08:39:32;;;;;;;7.80;6.90;;;2.30;99.90;;;;;;5051580;28;20711;-82
2021/01/13 08:42:22;;;;;;;10.32;8.75;;;2.10;99.90;;;;;;5051381;28;20237;-82
2021/01/13 08:44:49;;;;;;;13.68;8.25;;;2.20;99.90;;;;;;5031822;28;20746;-82
2021/01/13 08:47:16;;;;;;;10.93;8.05;;;2.30;99.90;;;;;;5031831;28;20212;-83
2021/01/13 08:49:43;;;;;;;10.07;8.10;;;2.50;99.90;;;;;;5051178;28;20266;-83
2021/01/13 08:52:28;;;;;;;11.32;7.85;;;2.50;99.90;;;;;;5051339;28;20198;-82
2021/01/13 08:55:15;;;;;;;11.93;7.95;;;2.80;99.90;;;;;;5050166;28;20332;-82
2021/01/13 08:57:59;;;;;;;7.97;7.18;;;3.00;99.90;;;;;;5033644;28;20219;-82
2021/01/13 09:00:27;;;;;;;10.80;7.80;;;3.20;99.90;;;;;;5051089;28;20219;-82
2021/01/13 09:03:14;;;;;;;9.02;7.63;;;3.20;99.90;;;;;;5050981;28;20203;-82
2021/01/13 09:05:44;;;;;;;10.55;8.07;;;3.40;99.90;;;;;;5039231;28;20553;-82
2021/01/13 09:08:12;;;;;;;11.00;8.63;;;3.30;99.90;;;;;;5050863;28;20716;-81
2021/01/13 09:10:48;;;;;;;11.23;8.18;;;3.20;99.70;;;;;;5051618;28;20215;-81
2021/01/13 09:13:39;;;;;;;14.57;8.25;;;3.20;99.90;;;;;;5051548;28;20237;-81
2021/01/13 09:16:34;;;;;;;8.88;7.85;;;3.20;99.90;;;;;;5052426;28;20196;-81
2021/01/13 09:19:09;;;;;;;12.00;8.30;;;3.10;99.80;;;;;;5050028;28;20196;-81
2021/01/13 09:21:37;;;;;;;8.48;6.95;;;3.00;99.40;;;;;;5050507;28;20218;-81
2021/01/13 09:24:06;;;;;;;14.85;7.30;;;3.00;99.30;;;;;;5051238;28;20196;-81
2021/01/13 09:26:35;;;;;;;10.77;6.57;;;2.70;99.10;;;;;;5051377;28;20195;-80
2021/01/13 09:29:10;;;;;;;9.65;7.20;;;2.70;99.60;;;;;;5051239;28;20231;-80
2021/01/13 09:31:39;;;;;;;10.07;5.50;;;2.80;99.90;;;;;;5051948;28;20192;-80
2021/01/13 09:34:06;;;;;;;7.43;4.97;;;2.60;99.20;;;;;;5051679;28;20216;-80
2021/01/13 09:36:57;;;;;;;5.82;4.75;;;2.40;99.30;;;;;;5051251;28;20287;-80
2021/01/13 09:39:33;;;;;;;6.40;4.80;;;2.40;98.90;;;;;;5051977;28;20200;-80
2021/01/13 09:42:01;;;;;;;5.47;4.45;;;2.30;99.40;;;;;;5051275;28;20653;-81
2021/01/13 09:44:30;;;;;;;5.05;4.32;;;2.20;99.70;;;;;;5052217;28;20250;-80
2021/01/13 09:46:58;;;;;;;5.63;5.03;;;2.30;99.50;;;;;;5050873;28;20211;-81
2021/01/13 09:49:24;;;;;;;7.05;4.45;;;2.30;99.50;;;;;;5051339;28;20219;-81
2021/01/13 09:51:51;;;;;;;5.45;4.60;;;2.20;99.20;;;;;;5050973;28;20270;-80
2021/01/13 09:54:23;;;;;;;7.15;4.10;;;2.20;99.50;;;;;;5051814;28;20270;-81
2021/01/13 09:56:55;;;;;;;4.68;4.05;;;2.30;99.50;;;;;;5051824;28;20217;-81
2021/01/13 09:59:25;;;;;;;4.50;3.45;;;2.40;99.60;;;;;;5051010;28;20295;-80
2021/01/13 10:01:58;;;;;;;6.10;3.83;;;2.50;99.20;;;;;;5050963;28;20237;-81
2021/01/13 10:04:24;;;;;;;3.65;3.30;;;2.70;99.40;;;;;;5052194;28;20601;-81
2021/01/13 10:06:56;;;;;;;4.47;4.07;;;2.60;98.80;;;;;;5050886;28;20207;-80
2021/01/13 10:09:23;;;;;;;9.60;3.88;;;2.60;99.10;;;;;;5050125;28;20199;-80
2021/01/13 10:11:54;;;;;;;7.00;4.28;;;2.50;98.50;;;;;;5050275;28;20192;-81
2021/01/13 10:14:22;;;;;;;5.05;4.47;;;2.50;98.80;;;;;;5050652;28;20223;-80
2021/01/13 10:16:50;;;;;;;5.68;4.45;;;2.40;98.90;;;;;;5050699;28;20204;-80
2021/01/13 10:19:19;;;;;;;7.15;4.68;;;2.70;99.30;;;;;;5050024;28;20575;-81
2021/01/13 10:21:48;;;;;;;5.82;3.72;;;2.80;98.80;;;;;;5050394;28;20629;-81
2021/01/13 10:24:16;;;;;;;6.05;4.05;;;3.00;98.90;;;;;;5050553;28;20228;-81
2021/01/13 10:26:44;;;;;;;9.82;5.07;;;3.00;98.60;;;;;;5051467;28;20219;-80
2021/01/13 10:29:13;;;;;;;7.00;5.20;;;3.20;98.50;;;;;;5049856;28;20204;-81
2021/01/13 10:31:40;;;;;;;6.15;5.03;;;3.40;98.50;;;;;;5051060;28;20218;-81
2021/01/13 10:34:07;;;;;;;5.30;4.63;;;3.50;98.20;;;;;;5050675;28;20567;-80
2021/01/13 10:36:42;;;;;;;6.03;4.95;;;3.40;97.80;;;;;;5050977;28;20203;-81
2021/01/13 10:39:22;;;;;;;7.18;5.90;;;3.60;97.90;;;;;;5049946;28;20735;-81
2021/01/13 10:41:50;;;;;;;10.88;4.82;;;3.90;97.80;;;;;;5051177;28;20204;-81
2021/01/13 10:44:19;;;;;;;5.60;5.10;;;4.10;97.60;;;;;;5050661;28;20775;-81
2021/01/13 10:46:48;;;;;;;5.82;5.03;;;4.30;97.40;;;;;;5051865;28;20628;-81
2021/01/13 10:49:37;;;;;;;5.50;4.25;;;4.20;96.80;;;;;;5049851;28;20250;-81
2021/01/13 10:52:11;;;;;;;4.63;4.15;;;4.10;96.60;;;;;;5033047;28;20204;-81
2021/01/13 10:54:39;;;;;;;5.13;4.07;;;3.80;96.30;;;;;;5053041;28;20269;-81
2021/01/13 10:57:08;;;;;;;5.05;4.40;;;3.50;96.30;;;;;;5054582;28;20673;-80
2021/01/13 10:59:35;;;;;;;4.32;3.95;;;3.60;97.20;;;;;;5054296;28;20532;-81
2021/01/13 11:02:04;;;;;;;5.43;4.80;;;3.80;97.30;;;;;;5054188;28;20200;-82
2021/01/13 11:04:35;;;;;;;4.85;4.20;;;4.10;97.20;;;;;;5054340;28;20212;-81
2021/01/13 11:07:05;;;;;;;10.77;4.35;;;3.90;96.10;;;;;;5054394;28;20227;-81
2021/01/13 11:09:32;;;;;;;6.65;3.95;;;3.80;96.80;;;;;;5054181;28;20274;-80
2021/01/13 11:11:59;;;;;;;3.88;3.47;;;3.40;95.70;;;;;;5054339;28;20189;-81
2021/01/13 11:14:37;;;;;;;6.47;4.55;;;3.50;97.00;;;;;;5054638;28;20546;-81
2021/01/13 11:17:06;;;;;;;8.10;6.15;;;3.80;97.20;;;;;;5053079;28;20559;-81
2021/01/13 11:19:33;;;;;;;13.18;8.50;;;3.80;96.50;;;;;;5052537;28;20204;-80
2021/01/13 11:22:00;;;;;;;14.07;7.10;;;3.80;96.40;;;;;;5053704;28;20666;-80
2021/01/13 11:24:30;;;;;;;14.88;8.27;;;3.70;96.50;;;;;;5053962;28;20211;-80
2021/01/13 11:27:00;;;;;;;4.80;3.45;;;3.90;96.90;;;;;;5053397;28;20192;-80
2021/01/13 11:29:30;;;;;;;8.98;7.70;;;3.90;95.70;;;;;;5054085;28;20203;-80
2021/01/13 11:31:58;;;;;;;10.00;7.63;;;3.60;95.80;;;;;;5054374;28;20326;-80
2021/01/13 11:34:25;;;;;;;14.18;11.43;;;3.80;96.00;;;;;;5053213;28;20845;-80
2021/01/13 11:37:21;;;;;;;9.38;6.70;;;3.80;96.10;;;;;;5054032;28;20207;-80
2021/01/13 11:40:01;;;;;;;10.90;5.72;;;3.80;95.90;;;;;;5053875;28;20591;-80
2021/01/13 11:42:48;;;;;;;14.88;11.85;;;3.60;95.90;;;;;;5053555;28;20207;-80
2021/01/13 11:45:20;;;;;;;22.45;12.98;;;3.50;95.90;;;;;;5035341;28;20574;-80
2021/01/13 11:47:52;;;;;;;18.30;9.52;;;3.70;96.50;;;;;;5051770;28;20245;-80
2021/01/13 11:50:22;;;;;;;24.98;13.48;;;3.70;96.40;;;;;;5053105;28;20638;-80
2021/01/13 11:52:50;;;;;;;20.10;13.20;;;3.40;95.60;;;;;;5053202;28;20199;-79
2021/01/13 11:55:18;;;;;;;50.28;31.10;;;3.40;96.10;;;;;;5053122;28;20233;-80
2021/01/13 11:57:49;;;;;;;31.20;20.17;;;3.60;96.20;;;;;;5052448;28;20215;-79
2021/01/13 12:00:18;;;;;;;4.47;3.75;;;3.70;96.60;;;;;;5053095;28;20211;-80
2021/01/13 12:02:50;;;;;;;11.13;10.02;;;2.40;95.00;;;;;;5052945;28;20200;-80
2021/01/13 12:05:28;;;;;;;16.15;14.25;;;3.60;95.10;;;;;;5053032;28;20227;-80
2021/01/13 12:08:03;;;;;;;26.40;23.05;;;3.30;94.70;;;;;;5051782;28;20215;-80
2021/01/13 12:10:32;;;;;;;13.35;11.95;;;3.70;95.70;;;;;;5052751;28;20211;-79
2021/01/13 12:13:18;;;;;;;6.43;5.63;;;4.00;95.90;;;;;;5052649;28;20196;-80
2021/01/13 12:15:53;;;;;;;4.68;3.30;;;4.10;95.30;;;;;;5052733;28;20699;-80
2021/01/13 12:18:22;;;;;;;9.98;6.03;;;4.10;94.30;;;;;;5051570;28;20240;-80
2021/01/13 12:20:50;;;;;;;5.90;2.60;;;3.80;93.60;;;;;;5053279;28;20282;-80
2021/01/13 12:23:18;;;;;;;3.42;3.15;;;3.90;94.10;;;;;;5052436;28;20250;-80
2021/01/13 12:25:45;;;;;;;2.83;2.50;;;3.80;94.30;;;;;;5052845;28;20208;-80
2021/01/13 12:28:12;;;;;;;7.53;3.35;;;3.60;94.30;;;;;;5051671;28;20215;-80
2021/01/13 12:30:52;;;;;;;3.63;3.08;;;3.60;94.00;;;;;;5052699;28;20210;-80
2021/01/13 12:33:20;;;;;;;4.75;2.40;;;3.90;94.30;;;;;;5052862;28;20219;-80
2021/01/13 12:35:46;;;;;;;4.05;2.90;;;4.00;94.00;;;;;;5051789;28;20203;-80
2021/01/13 12:38:13;;;;;;;3.72;2.10;;;4.00;94.10;;;;;;5051737;28;20188;-80
2021/01/13 12:40:39;;;;;;;2.33;2.13;;;4.20;94.60;;;;;;5052312;28;20680;-80
2021/01/13 12:43:14;;;;;;;3.45;2.70;;;3.80;93.40;;;;;;5051754;28;20200;-80
2021/01/13 12:45:41;;;;;;;4.70;4.30;;;3.80;93.40;;;;;;5051019;28;20192;-80
2021/01/13 12:48:08;;;;;;;3.50;2.35;;;3.70;93.50;;;;;;5051635;28;21024;-80
2021/01/13 12:50:36;;;;;;;2.22;1.70;;;3.50;93.30;;;;;;5052526;28;20200;-80
2021/01/13 12:53:02;;;;;;;4.20;2.40;;;3.60;92.90;;;;;;5051847;28;20208;-80
2021/01/13 12:55:29;;;;;;;3.88;2.78;;;3.70;93.10;;;;;;5051925;28;20729;-80
2021/01/13 12:57:56;;;;;;;1.83;1.73;;;3.90;93.40;;;;;;5051905;28;20204;-80
2021/01/13 13:00:25;;;;;;;1.63;1.15;;;3.90;92.90;;;;;;5051820;28;20204;-81
2021/01/13 13:02:51;;;;;;;2.10;1.33;;;3.80;92.90;;;;;;5052712;28;20230;-80
2021/01/13 13:05:18;;;;;;;1.92;1.20;;;3.70;92.20;;;;;;5052389;28;20246;-80
2021/01/13 13:07:44;;;;;;;3.55;2.20;;;3.70;91.70;;;;;;5051224;28;20200;-81
2021/01/13 13:10:11;;;;;;;1.52;1.20;;;3.80;92.00;;;;;;5051308;28;20208;-80
2021/01/13 13:12:38;;;;;;;1.73;1.02;;;3.70;91.70;;;;;;5051558;28;20253;-81
2021/01/13 13:15:06;;;;;;;4.35;2.30;;;3.60;91.60;;;;;;5051250;28;20322;-81
2021/01/13 13:17:37;;;;;;;1.05;0.95;;;3.40;91.90;;;;;;5051332;28;20206;-81
2021/01/13 13:20:04;;;;;;;4.63;1.13;;;3.20;92.00;;;;;;5050950;28;20200;-80
2021/01/13 13:22:31;;;;;;;1.58;1.27;;;3.10;91.70;;;;;;5051456;28;20184;-80
2021/01/13 13:24:58;;;;;;;1.73;1.30;;;3.20;91.30;;;;;;5052510;28;20199;-82